sensor_id;sensor_type;location;lat;lon;timestamp;P1;durP1;ratioP1;P2;durP2;ratioP2
69835;SDS011;57132;51.972;4.450;2023-04-03T00:00:52;3.92;;;1.77;;
69835;SDS011;57132;51.972;4.450;2023-04-03T00:03:18;2.38;;;1.60;;
69835;SDS011;57132;51.972;4.450;2023-04-03T00:05:44;6.15;;;1.90;;
69835;SDS011;57132;51.972;4.450;2023-04-03T00:08:10;4.18;;;1.70;;
69835;SDS011;57132;51.972;4.450;2023-04-03T00:10:36;3.38;;;1.73;;
69835;SDS011;57132;51.972;4.450;2023-04-03T00:13:05;3.28;;;1.30;;
69835;SDS011;57132;51.972;4.450;2023-04-03T00:15:31;3.40;;;1.65;;
69835;SDS011;57132;51.972;4.450;2023-04-03T00:17:57;2.80;;;1.70;;
69835;SDS011;57132;51.972;4.450;2023-04-03T00:20:22;5.40;;;2.00;;
69835;SDS011;57132;51.972;4.450;2023-04-03T00:22:48;8.10;;;1.88;;
69835;SDS011;57132;51.972;4.450;2023-04-03T00:25:13;3.40;;;1.45;;
69835;SDS011;57132;51.972;4.450;2023-04-03T00:27:39;5.03;;;2.05;;
69835;SDS011;57132;51.972;4.450;2023-04-03T00:30:05;3.08;;;1.83;;
69835;SDS011;57132;51.972;4.450;2023-04-03T00:32:33;4.68;;;1.70;;
69835;SDS011;57132;51.972;4.450;2023-04-03T00:34:58;4.30;;;1.85;;
69835;SDS011;57132;51.972;4.450;2023-04-03T00:37:23;3.90;;;1.98;;
69835;SDS011;57132;51.972;4.450;2023-04-03T00:39:49;5.13;;;2.30;;
69835;SDS011;57132;51.972;4.450;2023-04-03T00:42:15;5.38;;;2.15;;
69835;SDS011;57132;51.972;4.450;2023-04-03T00:47:07;3.47;;;1.95;;
69835;SDS011;57132;51.972;4.450;2023-04-03T00:49:35;6.25;;;1.80;;
69835;SDS011;57132;51.972;4.450;2023-04-03T00:52:02;4.72;;;1.83;;
69835;SDS011;57132;51.972;4.450;2023-04-03T00:54:28;5.75;;;1.65;;
69835;SDS011;57132;51.972;4.450;2023-04-03T00:56:54;7.82;;;2.08;;
69835;SDS011;57132;51.972;4.450;2023-04-03T00:59:24;5.07;;;2.03;;
69835;SDS011;57132;51.972;4.450;2023-04-03T01:01:53;2.50;;;1.50;;
69835;SDS011;57132;51.972;4.450;2023-04-03T01:04:28;3.58;;;1.92;;
69835;SDS011;57132;51.972;4.450;2023-04-03T01:06:57;5.50;;;2.00;;
69835;SDS011;57132;51.972;4.450;2023-04-03T01:09:26;3.85;;;1.63;;
69835;SDS011;57132;51.972;4.450;2023-04-03T01:11:51;2.58;;;1.58;;
69835;SDS011;57132;51.972;4.450;2023-04-03T01:14:17;5.80;;;2.03;;
69835;SDS011;57132;51.972;4.450;2023-04-03T01:16:42;3.00;;;1.90;;
69835;SDS011;57132;51.972;4.450;2023-04-03T01:19:08;3.95;;;2.10;;
69835;SDS011;57132;51.972;4.450;2023-04-03T01:26:56;4.13;;;1.92;;
69835;SDS011;57132;51.972;4.450;2023-04-03T01:29:22;4.80;;;2.00;;
69835;SDS011;57132;51.972;4.450;2023-04-03T01:31:55;5.13;;;2.03;;
69835;SDS011;57132;51.972;4.450;2023-04-03T01:34:23;3.40;;;1.60;;
69835;SDS011;57132;51.972;4.450;2023-04-03T01:36:50;4.60;;;1.77;;
69835;SDS011;57132;51.972;4.450;2023-04-03T01:39:17;6.57;;;2.17;;
69835;SDS011;57132;51.972;4.450;2023-04-03T01:41:42;4.55;;;2.08;;
69835;SDS011;57132;51.972;4.450;2023-04-03T01:44:08;5.18;;;1.90;;
69835;SDS011;57132;51.972;4.450;2023-04-03T01:46:35;3.28;;;1.90;;
69835;SDS011;57132;51.972;4.450;2023-04-03T01:49:02;5.38;;;2.20;;
69835;SDS011;57132;51.972;4.450;2023-04-03T01:51:28;2.33;;;1.73;;
69835;SDS011;57132;51.972;4.450;2023-04-03T01:53:53;3.80;;;1.60;;
69835;SDS011;57132;51.972;4.450;2023-04-03T01:56:18;7.45;;;2.40;;
69835;SDS011;57132;51.972;4.450;2023-04-03T01:58:45;4.57;;;1.90;;
69835;SDS011;57132;51.972;4.450;2023-04-03T02:01:10;2.97;;;1.63;;
69835;SDS011;57132;51.972;4.450;2023-04-03T02:03:35;5.70;;;2.08;;
69835;SDS011;57132;51.972;4.450;2023-04-03T02:06:01;3.08;;;1.95;;
69835;SDS011;57132;51.972;4.450;2023-04-03T02:08:27;4.15;;;2.22;;
69835;SDS011;57132;51.972;4.450;2023-04-03T02:10:52;5.95;;;2.47;;
69835;SDS011;57132;51.972;4.450;2023-04-03T02:13:17;3.70;;;1.77;;
69835;SDS011;57132;51.972;4.450;2023-04-03T02:15:43;3.15;;;1.65;;
69835;SDS011;57132;51.972;4.450;2023-04-03T02:18:10;5.90;;;2.50;;
69835;SDS011;57132;51.972;4.450;2023-04-03T02:20:36;4.25;;;2.28;;
69835;SDS011;57132;51.972;4.450;2023-04-03T02:23:01;2.97;;;1.92;;
69835;SDS011;57132;51.972;4.450;2023-04-03T02:25:28;3.17;;;1.85;;
69835;SDS011;57132;51.972;4.450;2023-04-03T02:27:53;4.22;;;2.38;;
69835;SDS011;57132;51.972;4.450;2023-04-03T02:30:18;5.63;;;2.33;;
69835;SDS011;57132;51.972;4.450;2023-04-03T02:32:44;4.38;;;1.80;;
69835;SDS011;57132;51.972;4.450;2023-04-03T02:35:10;4.15;;;2.22;;
69835;SDS011;57132;51.972;4.450;2023-04-03T02:37:36;3.28;;;1.95;;
69835;SDS011;57132;51.972;4.450;2023-04-03T02:40:02;3.90;;;2.30;;
69835;SDS011;57132;51.972;4.450;2023-04-03T02:42:27;5.47;;;2.42;;
69835;SDS011;57132;51.972;4.450;2023-04-03T02:44:53;7.22;;;2.28;;
69835;SDS011;57132;51.972;4.450;2023-04-03T02:47:18;5.28;;;1.98;;
69835;SDS011;57132;51.972;4.450;2023-04-03T02:49:44;3.30;;;1.67;;
69835;SDS011;57132;51.972;4.450;2023-04-03T02:52:10;6.75;;;2.17;;
69835;SDS011;57132;51.972;4.450;2023-04-03T02:54:36;5.05;;;2.47;;
69835;SDS011;57132;51.972;4.450;2023-04-03T02:57:02;3.40;;;2.17;;
69835;SDS011;57132;51.972;4.450;2023-04-03T02:59:27;3.88;;;2.17;;
69835;SDS011;57132;51.972;4.450;2023-04-03T03:01:52;3.70;;;2.20;;
69835;SDS011;57132;51.972;4.450;2023-04-03T03:04:18;4.40;;;2.45;;
69835;SDS011;57132;51.972;4.450;2023-04-03T03:06:44;4.72;;;2.38;;
69835;SDS011;57132;51.972;4.450;2023-04-03T03:09:09;5.25;;;2.72;;
69835;SDS011;57132;51.972;4.450;2023-04-03T03:11:34;5.63;;;2.45;;
69835;SDS011;57132;51.972;4.450;2023-04-03T03:14:00;8.20;;;2.90;;
69835;SDS011;57132;51.972;4.450;2023-04-03T03:16:25;5.13;;;2.40;;
69835;SDS011;57132;51.972;4.450;2023-04-03T03:18:50;4.25;;;2.45;;
69835;SDS011;57132;51.972;4.450;2023-04-03T03:21:16;4.65;;;2.30;;
69835;SDS011;57132;51.972;4.450;2023-04-03T03:23:41;4.70;;;2.28;;
69835;SDS011;57132;51.972;4.450;2023-04-03T03:26:09;6.05;;;2.83;;
69835;SDS011;57132;51.972;4.450;2023-04-03T03:28:35;4.45;;;2.30;;
69835;SDS011;57132;51.972;4.450;2023-04-03T03:31:02;5.40;;;2.20;;
69835;SDS011;57132;51.972;4.450;2023-04-03T03:33:28;6.40;;;2.70;;
69835;SDS011;57132;51.972;4.450;2023-04-03T03:35:53;4.75;;;2.92;;
69835;SDS011;57132;51.972;4.450;2023-04-03T03:38:19;6.25;;;2.53;;
69835;SDS011;57132;51.972;4.450;2023-04-03T03:40:46;6.57;;;2.65;;
69835;SDS011;57132;51.972;4.450;2023-04-03T03:43:13;5.47;;;2.67;;
69835;SDS011;57132;51.972;4.450;2023-04-03T03:45:39;7.28;;;2.92;;
69835;SDS011;57132;51.972;4.450;2023-04-03T03:48:04;4.50;;;2.42;;
69835;SDS011;57132;51.972;4.450;2023-04-03T03:50:30;9.15;;;2.90;;
69835;SDS011;57132;51.972;4.450;2023-04-03T03:52:55;4.90;;;2.78;;
69835;SDS011;57132;51.972;4.450;2023-04-03T03:55:20;4.43;;;2.38;;
69835;SDS011;57132;51.972;4.450;2023-04-03T03:57:46;6.95;;;3.60;;
69835;SDS011;57132;51.972;4.450;2023-04-03T04:00:12;5.22;;;3.05;;
69835;SDS011;57132;51.972;4.450;2023-04-03T04:02:37;5.88;;;2.90;;
69835;SDS011;57132;51.972;4.450;2023-04-03T04:05:03;4.57;;;2.55;;
69835;SDS011;57132;51.972;4.450;2023-04-03T04:07:29;5.47;;;2.50;;
69835;SDS011;57132;51.972;4.450;2023-04-03T04:09:54;5.80;;;3.35;;
69835;SDS011;57132;51.972;4.450;2023-04-03T04:12:20;5.28;;;3.17;;
69835;SDS011;57132;51.972;4.450;2023-04-03T04:14:45;5.15;;;2.67;;
69835;SDS011;57132;51.972;4.450;2023-04-03T04:17:11;4.18;;;2.70;;
69835;SDS011;57132;51.972;4.450;2023-04-03T04:19:37;8.20;;;3.08;;
69835;SDS011;57132;51.972;4.450;2023-04-03T04:22:03;6.43;;;3.20;;
69835;SDS011;57132;51.972;4.450;2023-04-03T04:24:28;6.03;;;2.88;;
69835;SDS011;57132;51.972;4.450;2023-04-03T04:26:54;6.45;;;3.15;;
69835;SDS011;57132;51.972;4.450;2023-04-03T04:29:19;8.07;;;3.10;;
69835;SDS011;57132;51.972;4.450;2023-04-03T04:31:44;4.03;;;2.60;;
69835;SDS011;57132;51.972;4.450;2023-04-03T04:34:10;7.38;;;3.20;;
69835;SDS011;57132;51.972;4.450;2023-04-03T04:36:35;7.10;;;3.88;;
69835;SDS011;57132;51.972;4.450;2023-04-03T04:39:01;10.02;;;4.15;;
69835;SDS011;57132;51.972;4.450;2023-04-03T04:41:26;4.75;;;2.72;;
69835;SDS011;57132;51.972;4.450;2023-04-03T04:43:51;5.50;;;3.35;;
69835;SDS011;57132;51.972;4.450;2023-04-03T04:46:17;8.52;;;3.17;;
69835;SDS011;57132;51.972;4.450;2023-04-03T04:48:43;5.57;;;3.10;;
69835;SDS011;57132;51.972;4.450;2023-04-03T04:51:09;8.20;;;3.10;;
69835;SDS011;57132;51.972;4.450;2023-04-03T04:53:34;9.15;;;3.58;;
69835;SDS011;57132;51.972;4.450;2023-04-03T04:56:00;4.20;;;3.10;;
69835;SDS011;57132;51.972;4.450;2023-04-03T04:58:25;6.15;;;3.33;;
69835;SDS011;57132;51.972;4.450;2023-04-03T05:01:04;7.28;;;3.10;;
69835;SDS011;57132;51.972;4.450;2023-04-03T05:03:31;8.30;;;3.50;;
69835;SDS011;57132;51.972;4.450;2023-04-03T05:05:58;5.63;;;3.22;;
69835;SDS011;57132;51.972;4.450;2023-04-03T05:08:24;8.40;;;3.28;;
69835;SDS011;57132;51.972;4.450;2023-04-03T05:10:49;5.43;;;3.40;;
69835;SDS011;57132;51.972;4.450;2023-04-03T05:13:15;11.18;;;4.18;;
69835;SDS011;57132;51.972;4.450;2023-04-03T05:15:41;12.02;;;3.75;;
69835;SDS011;57132;51.972;4.450;2023-04-03T05:18:07;11.13;;;4.00;;
69835;SDS011;57132;51.972;4.450;2023-04-03T05:20:33;6.95;;;3.53;;
69835;SDS011;57132;51.972;4.450;2023-04-03T05:22:59;5.35;;;2.85;;
69835;SDS011;57132;51.972;4.450;2023-04-03T05:25:25;9.85;;;3.83;;
69835;SDS011;57132;51.972;4.450;2023-04-03T05:27:51;8.45;;;3.58;;
69835;SDS011;57132;51.972;4.450;2023-04-03T05:30:16;10.07;;;4.07;;
69835;SDS011;57132;51.972;4.450;2023-04-03T05:32:42;8.52;;;4.45;;
69835;SDS011;57132;51.972;4.450;2023-04-03T05:35:07;5.85;;;3.53;;
69835;SDS011;57132;51.972;4.450;2023-04-03T05:37:33;10.00;;;3.83;;
69835;SDS011;57132;51.972;4.450;2023-04-03T05:39:59;5.85;;;3.70;;
69835;SDS011;57132;51.972;4.450;2023-04-03T05:42:24;6.75;;;3.42;;
69835;SDS011;57132;51.972;4.450;2023-04-03T05:44:50;6.55;;;4.55;;
69835;SDS011;57132;51.972;4.450;2023-04-03T05:47:16;7.72;;;3.63;;
69835;SDS011;57132;51.972;4.450;2023-04-03T05:49:41;6.80;;;4.22;;
69835;SDS011;57132;51.972;4.450;2023-04-03T05:52:13;6.95;;;3.45;;
69835;SDS011;57132;51.972;4.450;2023-04-03T05:54:46;6.75;;;3.67;;
69835;SDS011;57132;51.972;4.450;2023-04-03T05:57:13;13.48;;;4.53;;
69835;SDS011;57132;51.972;4.450;2023-04-03T05:59:39;9.30;;;4.07;;
69835;SDS011;57132;51.972;4.450;2023-04-03T06:02:04;11.40;;;4.00;;
69835;SDS011;57132;51.972;4.450;2023-04-03T06:04:30;7.43;;;3.65;;
69835;SDS011;57132;51.972;4.450;2023-04-03T06:06:56;6.80;;;3.70;;
69835;SDS011;57132;51.972;4.450;2023-04-03T06:09:26;7.57;;;4.22;;
69835;SDS011;57132;51.972;4.450;2023-04-03T06:11:53;11.82;;;4.13;;
69835;SDS011;57132;51.972;4.450;2023-04-03T06:14:19;10.55;;;4.40;;
69835;SDS011;57132;51.972;4.450;2023-04-03T06:16:44;6.43;;;4.28;;
69835;SDS011;57132;51.972;4.450;2023-04-03T06:19:10;9.02;;;4.00;;
69835;SDS011;57132;51.972;4.450;2023-04-03T06:21:37;9.90;;;3.88;;
69835;SDS011;57132;51.972;4.450;2023-04-03T06:24:03;7.18;;;3.95;;
69835;SDS011;57132;51.972;4.450;2023-04-03T06:26:30;8.65;;;4.10;;
69835;SDS011;57132;51.972;4.450;2023-04-03T06:28:55;11.88;;;4.47;;
69835;SDS011;57132;51.972;4.450;2023-04-03T06:31:21;7.78;;;4.20;;
69835;SDS011;57132;51.972;4.450;2023-04-03T06:33:46;9.07;;;3.97;;
69835;SDS011;57132;51.972;4.450;2023-04-03T06:36:12;5.25;;;3.65;;
69835;SDS011;57132;51.972;4.450;2023-04-03T06:38:37;9.68;;;3.97;;
69835;SDS011;57132;51.972;4.450;2023-04-03T06:41:03;7.38;;;3.72;;
69835;SDS011;57132;51.972;4.450;2023-04-03T06:43:29;6.43;;;2.88;;
69835;SDS011;57132;51.972;4.450;2023-04-03T06:45:56;5.05;;;3.10;;
69835;SDS011;57132;51.972;4.450;2023-04-03T06:48:21;4.88;;;3.03;;
69835;SDS011;57132;51.972;4.450;2023-04-03T06:50:47;7.40;;;3.28;;
69835;SDS011;57132;51.972;4.450;2023-04-03T06:53:12;7.07;;;3.20;;
69835;SDS011;57132;51.972;4.450;2023-04-03T06:55:38;13.45;;;3.42;;
69835;SDS011;57132;51.972;4.450;2023-04-03T06:58:04;4.35;;;2.90;;
69835;SDS011;57132;51.972;4.450;2023-04-03T07:00:29;5.13;;;3.30;;
69835;SDS011;57132;51.972;4.450;2023-04-03T07:02:55;6.65;;;2.90;;
69835;SDS011;57132;51.972;4.450;2023-04-03T07:05:22;3.70;;;2.22;;
69835;SDS011;57132;51.972;4.450;2023-04-03T07:07:48;9.95;;;2.80;;
69835;SDS011;57132;51.972;4.450;2023-04-03T07:10:15;6.40;;;2.92;;
69835;SDS011;57132;51.972;4.450;2023-04-03T07:12:41;6.35;;;2.78;;
69835;SDS011;57132;51.972;4.450;2023-04-03T07:15:06;9.88;;;2.80;;
69835;SDS011;57132;51.972;4.450;2023-04-03T07:17:33;7.20;;;3.50;;
69835;SDS011;57132;51.972;4.450;2023-04-03T07:19:59;6.47;;;2.60;;
69835;SDS011;57132;51.972;4.450;2023-04-03T07:22:24;11.23;;;2.67;;
69835;SDS011;57132;51.972;4.450;2023-04-03T07:24:49;10.57;;;3.03;;
69835;SDS011;57132;51.972;4.450;2023-04-03T07:27:15;7.05;;;2.63;;
69835;SDS011;57132;51.972;4.450;2023-04-03T07:29:42;10.43;;;3.13;;
69835;SDS011;57132;51.972;4.450;2023-04-03T07:32:09;8.82;;;2.75;;
69835;SDS011;57132;51.972;4.450;2023-04-03T07:34:35;9.73;;;2.53;;
69835;SDS011;57132;51.972;4.450;2023-04-03T07:37:00;7.82;;;2.30;;
69835;SDS011;57132;51.972;4.450;2023-04-03T07:39:27;3.97;;;2.10;;
69835;SDS011;57132;51.972;4.450;2023-04-03T07:41:53;6.03;;;2.20;;
69835;SDS011;57132;51.972;4.450;2023-04-03T07:44:20;5.45;;;2.40;;
69835;SDS011;57132;51.972;4.450;2023-04-03T07:46:46;9.70;;;2.30;;
69835;SDS011;57132;51.972;4.450;2023-04-03T07:49:11;3.92;;;1.88;;
69835;SDS011;57132;51.972;4.450;2023-04-03T07:51:37;4.72;;;1.88;;
69835;SDS011;57132;51.972;4.450;2023-04-03T07:54:02;5.32;;;2.00;;
69835;SDS011;57132;51.972;4.450;2023-04-03T07:56:28;5.85;;;2.08;;
69835;SDS011;57132;51.972;4.450;2023-04-03T07:58:54;10.27;;;2.28;;
69835;SDS011;57132;51.972;4.450;2023-04-03T08:01:19;4.68;;;2.28;;
69835;SDS011;57132;51.972;4.450;2023-04-03T08:03:45;3.90;;;1.92;;
69835;SDS011;57132;51.972;4.450;2023-04-03T08:06:10;6.40;;;1.77;;
69835;SDS011;57132;51.972;4.450;2023-04-03T08:08:36;4.28;;;1.90;;
69835;SDS011;57132;51.972;4.450;2023-04-03T08:11:03;4.55;;;2.10;;
69835;SDS011;57132;51.972;4.450;2023-04-03T08:13:30;5.50;;;2.30;;
69835;SDS011;57132;51.972;4.450;2023-04-03T08:15:56;4.43;;;1.77;;
69835;SDS011;57132;51.972;4.450;2023-04-03T08:18:25;6.68;;;2.08;;
69835;SDS011;57132;51.972;4.450;2023-04-03T08:20:51;8.07;;;2.67;;
69835;SDS011;57132;51.972;4.450;2023-04-03T08:23:18;6.45;;;1.70;;
69835;SDS011;57132;51.972;4.450;2023-04-03T08:25:44;6.38;;;2.33;;
69835;SDS011;57132;51.972;4.450;2023-04-03T08:28:10;6.28;;;2.17;;
69835;SDS011;57132;51.972;4.450;2023-04-03T08:30:38;6.28;;;2.15;;
69835;SDS011;57132;51.972;4.450;2023-04-03T08:33:04;3.47;;;1.55;;
69835;SDS011;57132;51.972;4.450;2023-04-03T08:35:31;6.03;;;2.15;;
69835;SDS011;57132;51.972;4.450;2023-04-03T08:37:58;6.43;;;2.47;;
69835;SDS011;57132;51.972;4.450;2023-04-03T08:40:25;5.10;;;2.22;;
69835;SDS011;57132;51.972;4.450;2023-04-03T08:45:45;4.78;;;2.05;;
69835;SDS011;57132;51.972;4.450;2023-04-03T08:48:15;8.02;;;2.33;;
69835;SDS011;57132;51.972;4.450;2023-04-03T08:50:46;7.70;;;2.33;;
69835;SDS011;57132;51.972;4.450;2023-04-03T08:53:15;5.55;;;1.85;;
69835;SDS011;57132;51.972;4.450;2023-04-03T08:56:04;3.47;;;1.65;;
69835;SDS011;57132;51.972;4.450;2023-04-03T08:58:36;4.57;;;1.85;;
69835;SDS011;57132;51.972;4.450;2023-04-03T09:04:12;3.95;;;2.33;;
69835;SDS011;57132;51.972;4.450;2023-04-03T09:06:40;4.70;;;1.90;;
69835;SDS011;57132;51.972;4.450;2023-04-03T09:12:22;6.95;;;2.08;;
69835;SDS011;57132;51.972;4.450;2023-04-03T09:15:01;4.05;;;1.63;;
69835;SDS011;57132;51.972;4.450;2023-04-03T09:23:30;4.03;;;2.00;;
69835;SDS011;57132;51.972;4.450;2023-04-03T09:26:01;6.60;;;2.03;;
69835;SDS011;57132;51.972;4.450;2023-04-03T09:28:32;7.82;;;1.73;;
69835;SDS011;57132;51.972;4.450;2023-04-03T09:31:06;6.85;;;1.50;;
69835;SDS011;57132;51.972;4.450;2023-04-03T09:33:43;6.07;;;1.33;;
69835;SDS011;57132;51.972;4.450;2023-04-03T09:36:10;3.58;;;1.65;;
69835;SDS011;57132;51.972;4.450;2023-04-03T09:38:36;6.40;;;1.60;;
69835;SDS011;57132;51.972;4.450;2023-04-03T09:43:30;4.30;;;1.38;;
69835;SDS011;57132;51.972;4.450;2023-04-03T09:46:16;3.92;;;1.20;;
69835;SDS011;57132;51.972;4.450;2023-04-03T09:48:58;4.03;;;1.67;;
69835;SDS011;57132;51.972;4.450;2023-04-03T09:51:27;4.47;;;1.75;;
69835;SDS011;57132;51.972;4.450;2023-04-03T09:53:54;2.88;;;1.65;;
69835;SDS011;57132;51.972;4.450;2023-04-03T09:56:22;4.85;;;1.20;;
69835;SDS011;57132;51.972;4.450;2023-04-03T10:01:25;6.90;;;1.60;;
69835;SDS011;57132;51.972;4.450;2023-04-03T10:04:12;4.38;;;1.83;;
69835;SDS011;57132;51.972;4.450;2023-04-03T10:06:58;4.03;;;1.42;;
69835;SDS011;57132;51.972;4.450;2023-04-03T10:09:25;6.05;;;2.38;;
69835;SDS011;57132;51.972;4.450;2023-04-03T10:14:30;3.53;;;1.40;;
69835;SDS011;57132;51.972;4.450;2023-04-03T10:19:55;2.50;;;1.30;;
69835;SDS011;57132;51.972;4.450;2023-04-03T10:33:23;2.92;;;1.08;;
69835;SDS011;57132;51.972;4.450;2023-04-03T10:36:00;9.07;;;1.30;;
69835;SDS011;57132;51.972;4.450;2023-04-03T10:41:30;4.60;;;1.17;;
69835;SDS011;57132;51.972;4.450;2023-04-03T10:46:38;2.60;;;1.08;;
69835;SDS011;57132;51.972;4.450;2023-04-03T10:49:08;2.63;;;1.00;;
69835;SDS011;57132;51.972;4.450;2023-04-03T10:54:31;2.65;;;1.08;;
69835;SDS011;57132;51.972;4.450;2023-04-03T10:57:01;5.53;;;1.33;;
69835;SDS011;57132;51.972;4.450;2023-04-03T10:59:32;2.50;;;1.00;;
69835;SDS011;57132;51.972;4.450;2023-04-03T11:05:01;3.42;;;1.30;;
69835;SDS011;57132;51.972;4.450;2023-04-03T11:07:45;2.90;;;0.90;;
69835;SDS011;57132;51.972;4.450;2023-04-03T11:10:17;4.55;;;1.58;;
69835;SDS011;57132;51.972;4.450;2023-04-03T11:12:58;4.53;;;1.05;;
69835;SDS011;57132;51.972;4.450;2023-04-03T11:15:32;2.28;;;1.13;;
69835;SDS011;57132;51.972;4.450;2023-04-03T11:18:02;2.95;;;1.25;;
69835;SDS011;57132;51.972;4.450;2023-04-03T11:20:43;3.00;;;0.95;;
69835;SDS011;57132;51.972;4.450;2023-04-03T11:26:10;4.38;;;1.17;;
69835;SDS011;57132;51.972;4.450;2023-04-03T11:28:39;2.85;;;0.90;;
69835;SDS011;57132;51.972;4.450;2023-04-03T11:31:21;1.88;;;0.77;;
69835;SDS011;57132;51.972;4.450;2023-04-03T11:36:47;2.83;;;0.88;;
69835;SDS011;57132;51.972;4.450;2023-04-03T11:39:29;2.97;;;1.00;;
69835;SDS011;57132;51.972;4.450;2023-04-03T11:42:27;6.72;;;1.02;;
69835;SDS011;57132;51.972;4.450;2023-04-03T11:47:50;3.15;;;1.00;;
69835;SDS011;57132;51.972;4.450;2023-04-03T12:16:24;10.73;;;1.75;;
69835;SDS011;57132;51.972;4.450;2023-04-03T12:29:24;2.25;;;0.77;;
69835;SDS011;57132;51.972;4.450;2023-04-03T12:45:51;3.97;;;0.90;;
69835;SDS011;57132;51.972;4.450;2023-04-03T12:48:26;3.70;;;0.90;;
69835;SDS011;57132;51.972;4.450;2023-04-03T12:50:53;3.30;;;1.17;;
69835;SDS011;57132;51.972;4.450;2023-04-03T12:53:22;3.45;;;1.20;;
69835;SDS011;57132;51.972;4.450;2023-04-03T12:55:54;3.92;;;1.35;;
69835;SDS011;57132;51.972;4.450;2023-04-03T12:58:24;6.20;;;1.33;;
69835;SDS011;57132;51.972;4.450;2023-04-03T13:03:35;4.20;;;0.95;;
69835;SDS011;57132;51.972;4.450;2023-04-03T13:08:59;4.43;;;1.23;;
69835;SDS011;57132;51.972;4.450;2023-04-03T13:11:27;3.03;;;1.40;;
69835;SDS011;57132;51.972;4.450;2023-04-03T13:13:58;7.25;;;1.55;;
69835;SDS011;57132;51.972;4.450;2023-04-03T13:16:25;5.05;;;1.20;;
69835;SDS011;57132;51.972;4.450;2023-04-03T13:18:51;2.25;;;0.90;;
69835;SDS011;57132;51.972;4.450;2023-04-03T13:21:23;3.80;;;1.38;;
69835;SDS011;57132;51.972;4.450;2023-04-03T13:23:52;3.45;;;1.27;;
69835;SDS011;57132;51.972;4.450;2023-04-03T13:26:22;2.70;;;1.17;;
69835;SDS011;57132;51.972;4.450;2023-04-03T13:28:49;3.17;;;1.60;;
69835;SDS011;57132;51.972;4.450;2023-04-03T13:31:22;3.10;;;1.30;;
69835;SDS011;57132;51.972;4.450;2023-04-03T13:33:57;4.80;;;1.40;;
69835;SDS011;57132;51.972;4.450;2023-04-03T13:36:34;2.67;;;1.50;;
69835;SDS011;57132;51.972;4.450;2023-04-03T13:41:34;5.05;;;1.38;;
69835;SDS011;57132;51.972;4.450;2023-04-03T13:46:50;3.17;;;1.40;;
69835;SDS011;57132;51.972;4.450;2023-04-03T13:49:22;2.65;;;1.45;;
69835;SDS011;57132;51.972;4.450;2023-04-03T13:51:55;5.82;;;1.30;;
69835;SDS011;57132;51.972;4.450;2023-04-03T13:54:39;2.08;;;1.17;;
69835;SDS011;57132;51.972;4.450;2023-04-03T13:57:12;5.68;;;1.40;;
69835;SDS011;57132;51.972;4.450;2023-04-03T13:59:41;4.03;;;1.40;;
69835;SDS011;57132;51.972;4.450;2023-04-03T14:04:45;2.95;;;1.42;;
69835;SDS011;57132;51.972;4.450;2023-04-03T14:07:14;9.45;;;1.60;;
69835;SDS011;57132;51.972;4.450;2023-04-03T14:09:44;2.78;;;1.40;;
69835;SDS011;57132;51.972;4.450;2023-04-03T14:14:54;4.47;;;1.70;;
69835;SDS011;57132;51.972;4.450;2023-04-03T14:17:22;2.75;;;1.50;;
69835;SDS011;57132;51.972;4.450;2023-04-03T14:19:49;5.90;;;1.55;;
69835;SDS011;57132;51.972;4.450;2023-04-03T14:22:21;5.35;;;1.92;;
69835;SDS011;57132;51.972;4.450;2023-04-03T14:24:54;9.43;;;1.85;;
69835;SDS011;57132;51.972;4.450;2023-04-03T14:27:38;4.13;;;1.40;;
69835;SDS011;57132;51.972;4.450;2023-04-03T14:30:09;4.78;;;1.80;;
69835;SDS011;57132;51.972;4.450;2023-04-03T14:32:39;3.38;;;1.40;;
69835;SDS011;57132;51.972;4.450;2023-04-03T14:35:05;3.92;;;1.50;;
69835;SDS011;57132;51.972;4.450;2023-04-03T14:37:31;6.45;;;1.63;;
69835;SDS011;57132;51.972;4.450;2023-04-03T14:39:57;2.83;;;1.60;;
69835;SDS011;57132;51.972;4.450;2023-04-03T14:42:29;4.60;;;1.80;;
69835;SDS011;57132;51.972;4.450;2023-04-03T14:44:59;3.13;;;1.30;;
69835;SDS011;57132;51.972;4.450;2023-04-03T14:47:26;3.38;;;1.27;;
69835;SDS011;57132;51.972;4.450;2023-04-03T14:49:54;6.80;;;1.52;;
69835;SDS011;57132;51.972;4.450;2023-04-03T14:52:21;2.70;;;1.10;;
69835;SDS011;57132;51.972;4.450;2023-04-03T14:54:51;4.57;;;1.67;;
69835;SDS011;57132;51.972;4.450;2023-04-03T14:57:18;4.00;;;1.60;;
69835;SDS011;57132;51.972;4.450;2023-04-03T14:59:44;4.05;;;1.67;;
69835;SDS011;57132;51.972;4.450;2023-04-03T15:02:52;3.63;;;1.75;;
69835;SDS011;57132;51.972;4.450;2023-04-03T15:05:04;4.53;;;1.70;;
69835;SDS011;57132;51.972;4.450;2023-04-03T15:07:38;2.83;;;1.58;;
69835;SDS011;57132;51.972;4.450;2023-04-03T15:10:13;3.78;;;1.40;;
69835;SDS011;57132;51.972;4.450;2023-04-03T15:12:40;3.38;;;1.23;;
69835;SDS011;57132;51.972;4.450;2023-04-03T15:15:06;2.80;;;1.55;;
69835;SDS011;57132;51.972;4.450;2023-04-03T15:17:32;6.55;;;1.73;;
69835;SDS011;57132;51.972;4.450;2023-04-03T15:19:59;2.83;;;1.60;;
69835;SDS011;57132;51.972;4.450;2023-04-03T15:22:25;4.03;;;1.73;;
69835;SDS011;57132;51.972;4.450;2023-04-03T15:24:50;4.75;;;1.83;;
69835;SDS011;57132;51.972;4.450;2023-04-03T15:27:15;4.65;;;1.55;;
69835;SDS011;57132;51.972;4.450;2023-04-03T15:29:42;4.95;;;1.70;;
69835;SDS011;57132;51.972;4.450;2023-04-03T15:32:09;5.30;;;1.50;;
69835;SDS011;57132;51.972;4.450;2023-04-03T15:34:36;3.95;;;1.42;;
69835;SDS011;57132;51.972;4.450;2023-04-03T15:37:02;1.80;;;1.20;;
69835;SDS011;57132;51.972;4.450;2023-04-03T15:39:27;4.57;;;1.52;;
69835;SDS011;57132;51.972;4.450;2023-04-03T15:41:53;4.22;;;1.50;;
69835;SDS011;57132;51.972;4.450;2023-04-03T15:44:19;4.22;;;1.80;;
69835;SDS011;57132;51.972;4.450;2023-04-03T15:46:45;3.17;;;1.58;;
69835;SDS011;57132;51.972;4.450;2023-04-03T15:49:12;5.07;;;1.70;;
69835;SDS011;57132;51.972;4.450;2023-04-03T15:51:37;2.85;;;1.33;;
69835;SDS011;57132;51.972;4.450;2023-04-03T15:54:03;4.50;;;1.60;;
69835;SDS011;57132;51.972;4.450;2023-04-03T15:56:28;3.47;;;1.55;;
69835;SDS011;57132;51.972;4.450;2023-04-03T15:58:54;6.18;;;1.52;;
69835;SDS011;57132;51.972;4.450;2023-04-03T16:01:19;5.40;;;1.50;;
69835;SDS011;57132;51.972;4.450;2023-04-03T16:03:45;5.82;;;1.90;;
69835;SDS011;57132;51.972;4.450;2023-04-03T16:06:18;5.15;;;1.75;;
69835;SDS011;57132;51.972;4.450;2023-04-03T16:08:44;4.65;;;1.92;;
69835;SDS011;57132;51.972;4.450;2023-04-03T16:11:12;4.03;;;1.92;;
69835;SDS011;57132;51.972;4.450;2023-04-03T16:13:37;3.35;;;1.60;;
69835;SDS011;57132;51.972;4.450;2023-04-03T16:16:02;2.90;;;1.48;;
69835;SDS011;57132;51.972;4.450;2023-04-03T16:18:29;4.18;;;1.77;;
69835;SDS011;57132;51.972;4.450;2023-04-03T16:20:55;4.30;;;1.65;;
69835;SDS011;57132;51.972;4.450;2023-04-03T16:23:21;4.57;;;1.85;;
69835;SDS011;57132;51.972;4.450;2023-04-03T16:25:48;3.47;;;1.52;;
69835;SDS011;57132;51.972;4.450;2023-04-03T16:28:15;7.53;;;1.88;;
69835;SDS011;57132;51.972;4.450;2023-04-03T16:30:44;5.22;;;1.77;;
69835;SDS011;57132;51.972;4.450;2023-04-03T16:33:11;4.55;;;1.75;;
69835;SDS011;57132;51.972;4.450;2023-04-03T16:35:38;5.65;;;1.80;;
69835;SDS011;57132;51.972;4.450;2023-04-03T16:38:05;4.88;;;1.77;;
69835;SDS011;57132;51.972;4.450;2023-04-03T16:40:30;4.35;;;1.60;;
69835;SDS011;57132;51.972;4.450;2023-04-03T16:42:55;3.35;;;1.40;;
69835;SDS011;57132;51.972;4.450;2023-04-03T16:45:21;6.57;;;1.85;;
69835;SDS011;57132;51.972;4.450;2023-04-03T16:47:46;4.82;;;1.45;;
69835;SDS011;57132;51.972;4.450;2023-04-03T16:50:11;5.78;;;1.67;;
69835;SDS011;57132;51.972;4.450;2023-04-03T16:52:38;3.17;;;1.83;;
69835;SDS011;57132;51.972;4.450;2023-04-03T16:55:04;2.72;;;1.45;;
69835;SDS011;57132;51.972;4.450;2023-04-03T16:57:30;3.90;;;1.40;;
69835;SDS011;57132;51.972;4.450;2023-04-03T16:59:55;4.43;;;1.60;;
69835;SDS011;57132;51.972;4.450;2023-04-03T17:02:21;5.07;;;2.55;;